Terminal Aerodrome Forecast
Issued by NWS

Home | Current Version | Previous Version | Text Only | Print | Product List | Glossary On
Versions: 1 2 3 4 5 6 7 8 9 10 11 12 13 14 15 16 17 18 19
000
FTUS44 KTSA 210300 AAC
TAFXNA
TAF AMD
KXNA 210347Z 2104/2124 00000KT 1/4SM FG VV001
     FM211600 12002KT 2SM BR SCT250
     FM211800 VRB03KT P6SM FEW250=

USA.gov is the U.S. government's official web portal to all federal, state and local government web resources and services.